createdAt,value
2023-03-30T00:00:25.112Z,7.7
2023-03-30T00:05:25.123Z,8
2023-03-30T00:10:25.118Z,6.8
2023-03-30T00:15:25.106Z,6.9
2023-03-30T00:20:25.119Z,6.6
2023-03-30T00:25:25.097Z,6.5
2023-03-30T00:30:25.100Z,6.7
2023-03-30T00:35:25.092Z,7.4
2023-03-30T00:40:25.097Z,7.2
2023-03-30T00:45:25.105Z,8.1
2023-03-30T00:50:25.086Z,8.4
2023-03-30T00:55:25.093Z,8.4
2023-03-30T01:00:25.102Z,11.4
2023-03-30T01:05:25.090Z,12.6
2023-03-30T01:10:25.104Z,12
2023-03-30T01:15:25.237Z,9
2023-03-30T01:20:25.094Z,9
2023-03-30T01:25:25.090Z,11.1
2023-03-30T01:30:25.097Z,13.3
2023-03-30T01:35:25.196Z,11.5
2023-03-30T01:40:25.086Z,13.3
2023-03-30T01:45:25.096Z,13.3
2023-03-30T01:50:25.092Z,12.7
2023-03-30T01:55:25.088Z,15.5
2023-03-30T02:00:25.089Z,11.7
2023-03-30T02:05:25.096Z,13.7
2023-03-30T02:10:25.108Z,14
2023-03-30T02:15:25.091Z,13
2023-03-30T02:20:25.097Z,11.5
2023-03-30T02:25:25.098Z,12.3
2023-03-30T02:30:25.094Z,14.3
2023-03-30T02:35:25.100Z,15.1
2023-03-30T02:40:25.100Z,15.5
2023-03-30T02:45:25.093Z,16.3
2023-03-30T02:50:25.083Z,17.8
2023-03-30T02:55:25.133Z,13.2
2023-03-30T03:00:25.101Z,19.3
2023-03-30T03:05:25.094Z,14.8
2023-03-30T03:10:25.100Z,21.8
2023-03-30T03:15:25.093Z,15.9
2023-03-30T03:20:25.098Z,20.8
2023-03-30T03:25:25.090Z,16.7
2023-03-30T03:30:25.095Z,22.2
2023-03-30T03:35:25.095Z,20.8
2023-03-30T03:40:25.094Z,20.8
2023-03-30T03:45:25.099Z,23
2023-03-30T03:50:25.089Z,19.2
2023-03-30T03:55:25.102Z,17
2023-03-30T04:00:25.142Z,15.5
2023-03-30T04:05:25.086Z,15.5
2023-03-30T04:10:25.089Z,15.6
2023-03-30T04:15:25.095Z,17.2
2023-03-30T04:20:25.106Z,17.8
2023-03-30T04:25:25.107Z,17.5
2023-03-30T04:30:25.098Z,17.5
2023-03-30T04:35:25.106Z,16.1
2023-03-30T04:40:25.096Z,12
2023-03-30T04:45:25.095Z,12.7
2023-03-30T04:50:25.118Z,9.4
2023-03-30T04:55:25.093Z,10.7
2023-03-30T05:00:25.105Z,12.4
2023-03-30T05:05:25.110Z,15.2
2023-03-30T05:10:25.105Z,16.8
2023-03-30T05:15:25.099Z,17.7
2023-03-30T05:20:25.103Z,19.2
2023-03-30T05:25:25.094Z,12.7
2023-03-30T05:30:25.108Z,16
2023-03-30T05:35:25.095Z,16.9
2023-03-30T05:40:25.097Z,15.5
2023-03-30T05:45:25.108Z,16.3
2023-03-30T05:50:25.108Z,17.4
2023-03-30T05:55:25.104Z,15.3
2023-03-30T06:00:25.122Z,11.2
2023-03-30T06:05:25.087Z,12.7
2023-03-30T06:10:25.095Z,10.5
2023-03-30T06:15:25.087Z,9.1
2023-03-30T06:20:25.098Z,10.7
2023-03-30T06:25:25.096Z,9.4
2023-03-30T06:30:25.099Z,8.3
2023-03-30T06:35:25.099Z,15.7
2023-03-30T06:40:25.088Z,14.1
2023-03-30T06:45:25.097Z,20.7
2023-03-30T06:50:25.102Z,16.8
2023-03-30T06:55:25.084Z,20
2023-03-30T07:00:25.191Z,19.2
2023-03-30T07:05:25.098Z,17.9
2023-03-30T07:10:25.096Z,17.3
2023-03-30T07:15:25.095Z,12.4
2023-03-30T07:20:25.104Z,17.4
2023-03-30T07:25:25.095Z,19.2
2023-03-30T07:30:25.099Z,15.9
2023-03-30T07:35:25.086Z,17
2023-03-30T07:40:25.188Z,18.2
2023-03-30T07:45:25.103Z,23.5
2023-03-30T07:50:25.106Z,23.5
2023-03-30T07:55:25.092Z,18.9
2023-03-30T08:00:25.212Z,20.4
2023-03-30T08:05:25.097Z,19.2
2023-03-30T08:10:25.091Z,20.1
2023-03-30T08:15:25.093Z,18.1
2023-03-30T08:20:25.099Z,18.8
2023-03-30T08:25:25.090Z,18.5
2023-03-30T08:30:25.101Z,19.7
2023-03-30T08:35:25.127Z,17.5
2023-03-30T08:40:25.090Z,18.9
2023-03-30T08:45:25.221Z,21.4
2023-03-30T08:50:25.093Z,20.4
2023-03-30T08:55:25.092Z,25.8
2023-03-30T09:00:25.097Z,22.6
2023-03-30T09:05:25.142Z,23.4
2023-03-30T09:10:25.094Z,26.9
2023-03-30T09:15:25.103Z,28.5
2023-03-30T09:20:25.105Z,26
2023-03-30T09:25:25.090Z,25.6
2023-03-30T09:30:25.120Z,22.4
2023-03-30T09:35:25.153Z,24.5
2023-03-30T09:40:25.094Z,27.4
2023-03-30T09:45:25.091Z,25.4
2023-03-30T09:50:25.090Z,25.6
2023-03-30T09:55:25.095Z,23.7
2023-03-30T10:00:25.093Z,32.8
2023-03-30T10:05:25.094Z,25.9
2023-03-30T10:10:25.097Z,31.3
2023-03-30T10:15:25.094Z,31.3
2023-03-30T10:20:25.103Z,32.1
2023-03-30T10:25:25.099Z,27.2
2023-03-30T10:30:25.101Z,33
2023-03-30T10:35:25.104Z,29.7
2023-03-30T10:40:25.094Z,29.8
2023-03-30T10:45:25.094Z,31.3
2023-03-30T10:50:25.102Z,30.5
2023-03-30T10:55:25.092Z,20
2023-03-30T11:00:25.089Z,28.5
2023-03-30T11:05:25.099Z,30.8
2023-03-30T11:10:25.101Z,30.3
2023-03-30T11:15:25.095Z,29.1
2023-03-30T11:20:25.141Z,33
2023-03-30T11:25:25.101Z,33.4
2023-03-30T11:30:25.117Z,36.4
2023-03-30T11:35:25.090Z,30.5
2023-03-30T11:40:26.821Z,42.3
2023-03-30T11:45:25.087Z,47.8
2023-03-30T11:50:25.088Z,36.4
2023-03-30T11:55:25.091Z,36.1
2023-03-30T12:00:25.092Z,50.2
2023-03-30T12:05:25.111Z,41.6
2023-03-30T12:10:25.087Z,44.1
2023-03-30T12:15:25.096Z,44.4
2023-03-30T12:20:25.111Z,36.9
2023-03-30T12:25:25.105Z,31.3
2023-03-30T12:30:25.106Z,36.6
2023-03-30T12:35:25.172Z,50.7
2023-03-30T12:40:25.097Z,38.2
2023-03-30T12:45:25.110Z,49.2
2023-03-30T12:50:25.191Z,45.2
2023-03-30T12:55:25.106Z,37.4
2023-03-30T13:00:25.128Z,43.3
2023-03-30T13:05:25.103Z,50.2
2023-03-30T13:10:25.257Z,40.9
2023-03-30T13:15:25.151Z,29.4
2023-03-30T13:20:30.206Z,46
2023-03-30T13:25:25.225Z,35.4
2023-03-30T13:30:25.309Z,40.3
2023-03-30T13:35:25.345Z,40.6
2023-03-30T13:40:38.435Z,33.9
2023-03-30T13:45:25.162Z,41.6
2023-03-30T13:50:26.201Z,46.9
2023-03-30T13:55:25.107Z,45.2
2023-03-30T14:00:25.352Z,40.3
2023-03-30T14:05:25.355Z,43.3
2023-03-30T14:10:25.100Z,43.3
2023-03-30T14:15:25.320Z,35.2
2023-03-30T14:20:25.381Z,46
2023-03-30T14:25:25.359Z,50.2
2023-03-30T14:30:25.095Z,44.8
2023-03-30T14:35:25.252Z,37.7
2023-03-30T14:40:25.250Z,35.4
2023-03-30T14:45:25.254Z,38
2023-03-30T14:50:25.380Z,26.7
2023-03-30T14:55:25.392Z,23.4
2023-03-30T15:00:25.165Z,27
2023-03-30T15:05:25.409Z,33.2
2023-03-30T15:10:25.095Z,25.8
2023-03-30T15:15:25.099Z,23.6
2023-03-30T15:20:25.104Z,17.7
2023-03-30T15:30:25.108Z,12
2023-03-30T15:35:25.132Z,17.7
2023-03-30T15:40:25.116Z,25.6
2023-03-30T15:45:25.105Z,13.6
2023-03-30T15:50:25.100Z,11.6
2023-03-30T15:55:25.096Z,15.9
2023-03-30T16:00:25.094Z,15.4
2023-03-30T16:05:25.107Z,17.5
2023-03-30T16:10:25.103Z,22.4
2023-03-30T16:15:25.094Z,19.4
2023-03-30T16:20:25.111Z,17.5
2023-03-30T16:25:31.222Z,19.3
2023-03-30T16:30:25.096Z,19.2
2023-03-30T16:35:25.103Z,20.5
2023-03-30T16:40:25.107Z,15.2
2023-03-30T16:45:25.103Z,12.1
2023-03-30T16:50:25.094Z,10.3
2023-03-30T16:55:25.101Z,11.5
2023-03-30T17:00:25.102Z,10.7
2023-03-30T17:05:25.099Z,12.3
2023-03-30T17:10:25.105Z,8.9
2023-03-30T17:15:25.096Z,8.1
2023-03-30T17:20:25.088Z,7.6
2023-03-30T17:25:25.094Z,10.2
2023-03-30T17:30:25.101Z,8.4
2023-03-30T17:35:25.127Z,7.7
2023-03-30T17:40:25.118Z,7.9
2023-03-30T17:45:25.097Z,10.1
2023-03-30T17:50:25.102Z,13.3
2023-03-30T17:55:25.092Z,8.3
2023-03-30T18:00:25.104Z,12.2
2023-03-30T18:05:25.110Z,11.9
2023-03-30T18:10:25.102Z,14.9
2023-03-30T18:15:25.117Z,13.7
2023-03-30T18:20:25.113Z,14.3
2023-03-30T18:25:31.855Z,14.9
2023-03-30T18:30:25.105Z,13.9
2023-03-30T18:35:25.086Z,14.6
2023-03-30T18:40:25.106Z,11.4
2023-03-30T18:45:25.138Z,13.2
2023-03-30T18:50:25.102Z,12.1
2023-03-30T18:55:25.107Z,12.1
2023-03-30T19:00:25.095Z,12
2023-03-30T19:05:25.091Z,11.2
2023-03-30T19:10:25.100Z,11.8
2023-03-30T19:15:25.088Z,10.7
2023-03-30T19:20:25.098Z,10.9
2023-03-30T19:25:25.109Z,11.8
2023-03-30T19:30:25.102Z,12
2023-03-30T19:35:25.142Z,12.9
2023-03-30T19:40:25.104Z,12.5
2023-03-30T19:45:25.107Z,12.4
2023-03-30T19:50:25.216Z,10.3
2023-03-30T19:55:25.104Z,11.8
2023-03-30T20:00:25.092Z,11.7
2023-03-30T20:05:25.117Z,13.1
2023-03-30T20:10:25.106Z,16.3
2023-03-30T20:15:25.105Z,14.7
2023-03-30T20:20:25.135Z,13.2
2023-03-30T20:25:25.107Z,11.6
2023-03-30T20:30:25.098Z,12.2
2023-03-30T20:35:25.097Z,13.1
2023-03-30T20:40:25.107Z,15
2023-03-30T20:45:25.158Z,15.1
2023-03-30T20:50:25.102Z,19.5
2023-03-30T20:55:25.102Z,15.5
2023-03-30T21:00:25.146Z,18.5
2023-03-30T21:05:25.110Z,16.5
2023-03-30T21:10:25.095Z,12.7
2023-03-30T21:15:25.107Z,16.2
2023-03-30T21:20:25.105Z,16.2
2023-03-30T21:25:25.092Z,18.8
2023-03-30T21:30:25.103Z,20.2
2023-03-30T21:35:25.108Z,16.1
2023-03-30T21:40:25.131Z,14.8
2023-03-30T21:45:25.095Z,12.9
2023-03-30T21:50:25.098Z,17.1
2023-03-30T21:55:25.094Z,10.1
2023-03-30T22:00:25.103Z,15.2
2023-03-30T22:05:25.095Z,18.2
2023-03-30T22:10:25.106Z,14.7
2023-03-30T22:15:25.098Z,14.3
2023-03-30T22:20:25.101Z,12.3
2023-03-30T22:25:25.100Z,14.1
2023-03-30T22:30:25.098Z,11.1
2023-03-30T22:35:25.142Z,12.3
2023-03-30T22:40:25.100Z,8.8
2023-03-30T22:45:25.096Z,8.3
2023-03-30T22:50:25.104Z,8
2023-03-30T22:55:25.098Z,10.9
2023-03-30T23:00:25.088Z,12.6
2023-03-30T23:05:25.092Z,11.6
2023-03-30T23:10:25.100Z,14.2
2023-03-30T23:15:25.086Z,15.2
2023-03-30T23:20:25.104Z,16.2
2023-03-30T23:25:25.093Z,18.3
2023-03-30T23:30:25.111Z,19.5
2023-03-30T23:35:25.086Z,15.2
2023-03-30T23:40:25.090Z,14.6
2023-03-30T23:45:25.094Z,14.5
2023-03-30T23:50:26.479Z,11.8
2023-03-30T23:55:25.092Z,16.5
